sensor_id;sensor_type;location;lat;lon;timestamp;pressure;altitude;pressure_sealevel;temperature;humidity
46598;BME280;32318;48.858;8.252;2023-06-22T00:01:48;100193.63;;;23.91;64.10
46598;BME280;32318;48.858;8.252;2023-06-22T00:09:49;100230.13;;;23.68;64.48
46598;BME280;32318;48.858;8.252;2023-06-22T00:17:49;100452.16;;;23.77;64.86
46598;BME280;32318;48.858;8.252;2023-06-22T00:25:50;100228.00;;;23.92;65.43
46598;BME280;32318;48.858;8.252;2023-06-22T00:33:50;100190.66;;;23.31;69.01
46598;BME280;32318;48.858;8.252;2023-06-22T00:41:51;100236.84;;;22.75;71.42
46598;BME280;32318;48.858;8.252;2023-06-22T00:49:51;100232.66;;;22.67;71.34
46598;BME280;32318;48.858;8.252;2023-06-22T00:57:52;100240.28;;;22.53;72.94
46598;BME280;32318;48.858;8.252;2023-06-22T01:06:03;100228.09;;;22.15;74.59
46598;BME280;32318;48.858;8.252;2023-06-22T01:14:14;100231.06;;;22.13;76.03
46598;BME280;32318;48.858;8.252;2023-06-22T01:22:17;100236.19;;;21.86;77.52
46598;BME280;32318;48.858;8.252;2023-06-22T01:30:18;100240.25;;;21.71;78.98
46598;BME280;32318;48.858;8.252;2023-06-22T01:38:19;100239.28;;;21.42;80.40
46598;BME280;32318;48.858;8.252;2023-06-22T01:46:20;100244.72;;;21.30;81.48
46598;BME280;32318;48.858;8.252;2023-06-22T01:54:20;100225.00;;;21.23;82.00
46598;BME280;32318;48.858;8.252;2023-06-22T02:02:21;100220.16;;;21.37;80.65
46598;BME280;32318;48.858;8.252;2023-06-22T02:10:27;100210.38;;;21.24;81.19
46598;BME280;32318;48.858;8.252;2023-06-22T02:18:28;100216.59;;;21.12;81.49
46598;BME280;32318;48.858;8.252;2023-06-22T02:26:29;100209.97;;;21.08;81.52
46598;BME280;32318;48.858;8.252;2023-06-22T02:34:29;100199.25;;;21.13;81.70
46598;BME280;32318;48.858;8.252;2023-06-22T02:42:29;100193.59;;;21.03;82.25
46598;BME280;32318;48.858;8.252;2023-06-22T02:50:30;100173.63;;;20.97;82.12
46598;BME280;32318;48.858;8.252;2023-06-22T02:58:31;100159.25;;;20.97;81.48
46598;BME280;32318;48.858;8.252;2023-06-22T03:06:33;100137.41;;;20.92;81.46
46598;BME280;32318;48.858;8.252;2023-06-22T03:14:33;100152.38;;;20.82;82.01
46598;BME280;32318;48.858;8.252;2023-06-22T03:22:35;100146.13;;;20.82;82.07
46598;BME280;32318;48.858;8.252;2023-06-22T03:30:35;100147.44;;;20.79;82.44
46598;BME280;32318;48.858;8.252;2023-06-22T03:38:36;100143.44;;;20.94;82.68
46598;BME280;32318;48.858;8.252;2023-06-22T03:46:36;100140.25;;;20.85;82.45
46598;BME280;32318;48.858;8.252;2023-06-22T03:54:36;100144.84;;;20.84;82.36
46598;BME280;32318;48.858;8.252;2023-06-22T04:02:37;100130.81;;;20.88;82.40
46598;BME280;32318;48.858;8.252;2023-06-22T04:10:37;100129.25;;;20.92;82.34
46598;BME280;32318;48.858;8.252;2023-06-22T04:18:37;100123.63;;;20.93;81.42
46598;BME280;32318;48.858;8.252;2023-06-22T04:26:38;100111.47;;;20.96;81.07
46598;BME280;32318;48.858;8.252;2023-06-22T04:34:38;100108.03;;;21.00;81.06
46598;BME280;32318;48.858;8.252;2023-06-22T04:42:38;100105.28;;;21.24;80.63
46598;BME280;32318;48.858;8.252;2023-06-22T04:50:39;100092.66;;;21.30;80.50
46598;BME280;32318;48.858;8.252;2023-06-22T04:58:39;100082.94;;;21.34;80.28
46598;BME280;32318;48.858;8.252;2023-06-22T05:06:39;100082.56;;;21.42;80.40
46598;BME280;32318;48.858;8.252;2023-06-22T05:14:40;100073.16;;;21.45;80.81
46598;BME280;32318;48.858;8.252;2023-06-22T05:22:40;100064.97;;;21.57;80.51
46598;BME280;32318;48.858;8.252;2023-06-22T05:30:41;100071.00;;;21.88;79.66
46598;BME280;32318;48.858;8.252;2023-06-22T05:38:42;100055.06;;;22.08;79.48
46598;BME280;32318;48.858;8.252;2023-06-22T05:46:43;100074.16;;;22.43;78.96
46598;BME280;32318;48.858;8.252;2023-06-22T05:54:48;100067.78;;;22.88;76.78
46598;BME280;32318;48.858;8.252;2023-06-22T06:02:48;100077.09;;;23.31;74.50
46598;BME280;32318;48.858;8.252;2023-06-22T06:10:49;100072.50;;;23.59;72.24
46598;BME280;32318;48.858;8.252;2023-06-22T06:18:49;100047.22;;;23.91;69.81
46598;BME280;32318;48.858;8.252;2023-06-22T06:26:50;100053.84;;;24.28;68.14
46598;BME280;32318;48.858;8.252;2023-06-22T06:34:51;100048.50;;;24.43;68.11
46598;BME280;32318;48.858;8.252;2023-06-22T06:42:51;100034.50;;;24.67;67.83
46598;BME280;32318;48.858;8.252;2023-06-22T06:50:51;100037.94;;;24.90;67.32
46598;BME280;32318;48.858;8.252;2023-06-22T06:58:51;100053.00;;;25.03;67.35
46598;BME280;32318;48.858;8.252;2023-06-22T07:06:51;100034.00;;;25.29;65.78
46598;BME280;32318;48.858;8.252;2023-06-22T07:14:53;100028.94;;;25.53;64.75
46598;BME280;32318;48.858;8.252;2023-06-22T07:22:53;100022.94;;;25.72;64.62
46598;BME280;32318;48.858;8.252;2023-06-22T07:30:54;100011.75;;;25.99;63.40
46598;BME280;32318;48.858;8.252;2023-06-22T07:38:54;100024.34;;;26.00;63.61
46598;BME280;32318;48.858;8.252;2023-06-22T07:46:54;100029.03;;;26.25;63.60
46598;BME280;32318;48.858;8.252;2023-06-22T07:54:54;100046.53;;;26.35;63.63
46598;BME280;32318;48.858;8.252;2023-06-22T08:02:55;100059.09;;;26.72;62.82
46598;BME280;32318;48.858;8.252;2023-06-22T08:10:55;100108.34;;;27.08;62.05
46598;BME280;32318;48.858;8.252;2023-06-22T08:18:55;100130.47;;;27.32;60.56
46598;BME280;32318;48.858;8.252;2023-06-22T08:26:56;100121.34;;;27.58;61.89
46598;BME280;32318;48.858;8.252;2023-06-22T08:34:57;100072.75;;;27.68;61.43
46598;BME280;32318;48.858;8.252;2023-06-22T08:42:57;100079.53;;;27.81;60.94
46598;BME280;32318;48.858;8.252;2023-06-22T08:50:57;100079.56;;;28.21;59.59
46598;BME280;32318;48.858;8.252;2023-06-22T08:58:58;100079.41;;;28.42;58.71
46598;BME280;32318;48.858;8.252;2023-06-22T09:06:58;100088.28;;;28.33;58.78
46598;BME280;32318;48.858;8.252;2023-06-22T09:15:00;100082.78;;;28.33;58.65
46598;BME280;32318;48.858;8.252;2023-06-22T09:23:00;100057.59;;;28.56;57.55
46598;BME280;32318;48.858;8.252;2023-06-22T09:31:01;100011.34;;;28.39;55.95
46598;BME280;32318;48.858;8.252;2023-06-22T09:39:01;100002.94;;;28.54;55.11
46598;BME280;32318;48.858;8.252;2023-06-22T09:47:06;99967.72;;;28.37;56.13
46598;BME280;32318;48.858;8.252;2023-06-22T09:55:07;99978.47;;;28.28;56.68
46598;BME280;32318;48.858;8.252;2023-06-22T10:03:07;99994.81;;;28.44;56.86
46598;BME280;32318;48.858;8.252;2023-06-22T10:11:07;99988.63;;;28.57;56.60
46598;BME280;32318;48.858;8.252;2023-06-22T10:19:08;99978.34;;;28.68;56.15
46598;BME280;32318;48.858;8.252;2023-06-22T10:27:08;99967.56;;;28.77;57.16
46598;BME280;32318;48.858;8.252;2023-06-22T10:35:09;99960.78;;;28.93;56.97
46598;BME280;32318;48.858;8.252;2023-06-22T10:43:10;99959.78;;;28.84;57.24
46598;BME280;32318;48.858;8.252;2023-06-22T10:51:11;99955.44;;;29.02;56.52
46598;BME280;32318;48.858;8.252;2023-06-22T10:59:11;99959.31;;;29.20;56.26
46598;BME280;32318;48.858;8.252;2023-06-22T11:07:11;99965.16;;;29.38;55.50
46598;BME280;32318;48.858;8.252;2023-06-22T11:15:12;99952.56;;;29.70;54.97
46598;BME280;32318;48.858;8.252;2023-06-22T11:23:12;99944.66;;;29.82;53.96
46598;BME280;32318;48.858;8.252;2023-06-22T11:31:12;99943.31;;;29.99;54.21
46598;BME280;32318;48.858;8.252;2023-06-22T11:39:13;99955.78;;;29.91;53.60
46598;BME280;32318;48.858;8.252;2023-06-22T11:47:14;99980.22;;;29.98;54.31
46598;BME280;32318;48.858;8.252;2023-06-22T11:55:15;99970.88;;;30.27;53.46
46598;BME280;32318;48.858;8.252;2023-06-22T12:03:15;99982.00;;;30.22;53.24
46598;BME280;32318;48.858;8.252;2023-06-22T12:11:16;99964.47;;;30.45;53.02
46598;BME280;32318;48.858;8.252;2023-06-22T12:19:16;99969.72;;;30.61;53.06
46598;BME280;32318;48.858;8.252;2023-06-22T12:27:17;100001.50;;;30.39;53.42
46598;BME280;32318;48.858;8.252;2023-06-22T12:35:18;99987.91;;;30.15;54.30
46598;BME280;32318;48.858;8.252;2023-06-22T12:43:18;99977.63;;;30.34;53.85
46598;BME280;32318;48.858;8.252;2023-06-22T12:51:22;99978.25;;;30.45;52.64
46598;BME280;32318;48.858;8.252;2023-06-22T12:59:22;99984.72;;;30.55;53.00
46598;BME280;32318;48.858;8.252;2023-06-22T13:07:22;99964.84;;;30.86;52.52
46598;BME280;32318;48.858;8.252;2023-06-22T13:15:23;99982.91;;;30.92;52.39
46598;BME280;32318;48.858;8.252;2023-06-22T13:23:23;99962.16;;;30.80;52.88
46598;BME280;32318;48.858;8.252;2023-06-22T13:31:23;99938.06;;;31.00;52.34
46598;BME280;32318;48.858;8.252;2023-06-22T13:39:24;99948.25;;;31.13;51.64
46598;BME280;32318;48.858;8.252;2023-06-22T13:47:24;99931.03;;;31.44;50.86
46598;BME280;32318;48.858;8.252;2023-06-22T13:55:24;99937.88;;;30.96;51.57
46598;BME280;32318;48.858;8.252;2023-06-22T14:03:26;99932.34;;;30.41;52.27
46598;BME280;32318;48.858;8.252;2023-06-22T14:11:26;99941.41;;;30.13;52.37
46598;BME280;32318;48.858;8.252;2023-06-22T14:19:27;99900.50;;;30.20;52.32
46598;BME280;32318;48.858;8.252;2023-06-22T14:27:27;99901.25;;;30.68;51.13
46598;BME280;32318;48.858;8.252;2023-06-22T14:35:27;99890.25;;;31.19;49.68
46598;BME280;32318;48.858;8.252;2023-06-22T14:43:28;99865.88;;;31.57;48.12
46598;BME280;32318;48.858;8.252;2023-06-22T14:51:28;99830.03;;;31.89;46.90
46598;BME280;32318;48.858;8.252;2023-06-22T14:59:28;99824.69;;;32.33;46.10
46598;BME280;32318;48.858;8.252;2023-06-22T15:07:29;99825.38;;;32.56;46.08
46598;BME280;32318;48.858;8.252;2023-06-22T15:15:29;99822.09;;;32.36;45.70
46598;BME280;32318;48.858;8.252;2023-06-22T15:23:31;99841.47;;;32.54;45.51
46598;BME280;32318;48.858;8.252;2023-06-22T15:31:31;99822.78;;;32.51;45.69
46598;BME280;32318;48.858;8.252;2023-06-22T15:39:31;99819.81;;;32.47;45.52
46598;BME280;32318;48.858;8.252;2023-06-22T15:47:32;99807.59;;;32.31;46.14
46598;BME280;32318;48.858;8.252;2023-06-22T15:55:32;99804.94;;;32.08;46.55
46598;BME280;32318;48.858;8.252;2023-06-22T16:03:32;99807.34;;;32.10;46.24
46598;BME280;32318;48.858;8.252;2023-06-22T16:11:33;99766.09;;;32.04;46.53
46598;BME280;32318;48.858;8.252;2023-06-22T16:19:33;99781.31;;;31.93;46.54
46598;BME280;32318;48.858;8.252;2023-06-22T16:27:33;99778.88;;;31.91;46.50
46598;BME280;32318;48.858;8.252;2023-06-22T16:35:34;99762.50;;;31.95;45.13
46598;BME280;32318;48.858;8.252;2023-06-22T16:43:37;99770.09;;;31.81;45.58
46598;BME280;32318;48.858;8.252;2023-06-22T16:51:39;99771.50;;;31.69;45.24
46598;BME280;32318;48.858;8.252;2023-06-22T16:59:39;99781.97;;;31.58;44.43
46598;BME280;32318;48.858;8.252;2023-06-22T17:07:43;99780.41;;;31.43;43.38
46598;BME280;32318;48.858;8.252;2023-06-22T17:15:47;99792.53;;;31.11;45.32
46598;BME280;32318;48.858;8.252;2023-06-22T17:23:49;99801.94;;;30.73;45.87
46598;BME280;32318;48.858;8.252;2023-06-22T17:31:55;99828.06;;;30.48;45.83
46598;BME280;32318;48.858;8.252;2023-06-22T17:39:55;99840.13;;;30.24;45.73
46598;BME280;32318;48.858;8.252;2023-06-22T17:47:55;99826.88;;;30.12;45.34
46598;BME280;32318;48.858;8.252;2023-06-22T17:55:59;99838.47;;;29.81;44.03
46598;BME280;32318;48.858;8.252;2023-06-22T18:04:11;99850.16;;;29.40;41.91
46598;BME280;32318;48.858;8.252;2023-06-22T18:12:12;99852.47;;;29.14;44.12
46598;BME280;32318;48.858;8.252;2023-06-22T18:20:14;99865.72;;;28.92;44.04
46598;BME280;32318;48.858;8.252;2023-06-22T18:28:14;99854.81;;;28.87;44.53
46598;BME280;32318;48.858;8.252;2023-06-22T18:36:24;99864.56;;;28.74;44.32
46598;BME280;32318;48.858;8.252;2023-06-22T18:44:28;99873.81;;;28.59;44.22
46598;BME280;32318;48.858;8.252;2023-06-22T18:52:28;99890.75;;;28.42;44.63
46598;BME280;32318;48.858;8.252;2023-06-22T19:00:30;99913.63;;;28.08;46.51
46598;BME280;32318;48.858;8.252;2023-06-22T19:09:11;99904.09;;;27.66;48.62
46598;BME280;32318;48.858;8.252;2023-06-22T19:17:12;99894.16;;;27.35;49.02
46598;BME280;32318;48.858;8.252;2023-06-22T19:25:20;99862.06;;;27.01;49.60
46598;BME280;32318;48.858;8.252;2023-06-22T19:33:22;99927.91;;;26.81;49.32
46598;BME280;32318;48.858;8.252;2023-06-22T19:41:23;100033.94;;;26.54;49.27
46598;BME280;32318;48.858;8.252;2023-06-22T19:49:23;100129.03;;;25.70;56.93
46598;BME280;32318;48.858;8.252;2023-06-22T19:57:24;100162.09;;;24.22;62.60
46598;BME280;32318;48.858;8.252;2023-06-22T20:05:24;100195.84;;;23.72;64.84
46598;BME280;32318;48.858;8.252;2023-06-22T20:13:24;100227.03;;;23.42;66.24
46598;BME280;32318;48.858;8.252;2023-06-22T20:21:25;100238.88;;;23.30;67.83
46598;BME280;32318;48.858;8.252;2023-06-22T20:37:25;100220.69;;;22.85;69.52
46598;BME280;32318;48.858;8.252;2023-06-22T20:45:28;100224.81;;;22.87;69.87
46598;BME280;32318;48.858;8.252;2023-06-22T20:53:29;100232.56;;;22.79;70.59
46598;BME280;32318;48.858;8.252;2023-06-22T21:01:29;100210.38;;;22.87;70.49
46598;BME280;32318;48.858;8.252;2023-06-22T21:09:32;100184.41;;;22.96;70.96
46598;BME280;32318;48.858;8.252;2023-06-22T21:17:33;100178.13;;;22.79;72.02
46598;BME280;32318;48.858;8.252;2023-06-22T21:25:33;100207.50;;;22.77;72.79
46598;BME280;32318;48.858;8.252;2023-06-22T21:33:34;100220.97;;;22.54;72.37
46598;BME280;32318;48.858;8.252;2023-06-22T21:41:34;100230.59;;;22.45;71.37
46598;BME280;32318;48.858;8.252;2023-06-22T21:49:34;100234.66;;;22.43;72.92
46598;BME280;32318;48.858;8.252;2023-06-22T21:57:34;100237.03;;;22.27;71.59
46598;BME280;32318;48.858;8.252;2023-06-22T22:05:35;100253.63;;;22.14;72.27
46598;BME280;32318;48.858;8.252;2023-06-22T22:13:35;100260.25;;;22.18;74.46
46598;BME280;32318;48.858;8.252;2023-06-22T22:21:36;100267.81;;;22.16;73.00
46598;BME280;32318;48.858;8.252;2023-06-22T22:29:37;100278.59;;;22.11;74.01
46598;BME280;32318;48.858;8.252;2023-06-22T22:37:37;100283.44;;;22.08;73.43
46598;BME280;32318;48.858;8.252;2023-06-22T22:45:38;100278.97;;;21.90;74.13
46598;BME280;32318;48.858;8.252;2023-06-22T22:53:38;100284.75;;;21.82;74.18
46598;BME280;32318;48.858;8.252;2023-06-22T23:01:38;100286.44;;;21.71;74.32
46598;BME280;32318;48.858;8.252;2023-06-22T23:09:39;100292.34;;;21.68;75.21
46598;BME280;32318;48.858;8.252;2023-06-22T23:17:39;100292.94;;;21.70;74.49
46598;BME280;32318;48.858;8.252;2023-06-22T23:25:40;100296.13;;;21.67;75.55
46598;BME280;32318;48.858;8.252;2023-06-22T23:33:40;100295.75;;;21.63;74.33
46598;BME280;32318;48.858;8.252;2023-06-22T23:41:40;100311.56;;;21.55;75.37
46598;BME280;32318;48.858;8.252;2023-06-22T23:49:41;100319.59;;;21.50;74.96
46598;BME280;32318;48.858;8.252;2023-06-22T23:57:42;100341.56;;;21.48;75.30
